Time;durP1;ratioP1;P1;durP2;ratioP2;P2;SDS_P1;SDS_P2;PMS_P1;PMS_P2;Temp;Humidity;BMP_temperature;BMP_pressure;BME280_temperature;BME280_humidity;BME280_pressure;Samples;Min_cycle;Max_cycle;Signal;HPM_P1;HPM_P2
2021/06/18 00:00:12;;;;;;;11.37;10.47;;;20.80;1.00;;;;;;4943038;29;20539;-59
2021/06/18 00:02:38;;;;;;;12.23;11.13;;;20.80;1.00;;;;;;4936669;29;21144;-58
2021/06/18 00:05:06;;;;;;;10.30;9.60;;;20.80;1.00;;;;;;4943572;29;20440;-59
2021/06/18 00:07:42;;;;;;;11.00;10.20;;;20.80;1.00;;;;;;4950096;29;20429;-59
2021/06/18 00:10:09;;;;;;;11.20;10.37;;;20.80;1.00;;;;;;4934682;29;20924;-59
2021/06/18 00:12:38;;;;;;;11.50;10.70;;;20.80;1.00;;;;;;4932401;29;20437;-59
2021/06/18 00:15:09;;;;;;;11.33;10.53;;;20.80;1.00;;;;;;4938653;29;20441;-59
2021/06/18 00:17:36;;;;;;;11.87;10.97;;;20.80;1.00;;;;;;4934994;28;20445;-59
2021/06/18 00:20:03;;;;;;;11.90;10.80;;;20.70;11.10;;;;;;4935337;29;21278;-59
2021/06/18 00:22:29;;;;;;;11.60;10.90;;;20.70;5.70;;;;;;4938135;29;20434;-59
2021/06/18 00:24:57;;;;;;;11.23;10.53;;;20.60;99.90;;;;;;4934849;29;20448;-59
2021/06/18 00:27:25;;;;;;;10.87;10.07;;;20.60;99.90;;;;;;4936744;29;20536;-56
2021/06/18 00:29:51;;;;;;;12.53;11.30;;;20.50;99.90;;;;;;4936824;29;20444;-59
2021/06/18 00:32:16;;;;;;;11.37;10.67;;;20.50;99.90;;;;;;4935903;29;20930;-59
2021/06/18 00:34:42;;;;;;;10.93;10.13;;;20.50;99.90;;;;;;4948438;28;20216;-59
2021/06/18 00:37:11;;;;;;;11.50;10.70;;;20.40;99.90;;;;;;4935750;29;20877;-57
2021/06/18 00:39:37;;;;;;;11.03;10.33;;;20.40;99.90;;;;;;4935836;29;20189;-59
2021/06/18 00:42:03;;;;;;;12.53;11.63;;;20.50;1.00;;;;;;4935199;28;20456;-59
2021/06/18 00:44:29;;;;;;;11.30;10.60;;;20.50;99.90;;;;;;4936833;29;20192;-59
2021/06/18 00:46:55;;;;;;;11.67;10.70;;;20.50;1.00;;;;;;4941799;29;20449;-59
2021/06/18 00:49:22;;;;;;;12.30;11.30;;;20.50;1.00;;;;;;4936102;29;20245;-58
2021/06/18 00:51:48;;;;;;;11.77;10.90;;;20.40;1.00;;;;;;4943642;28;20439;-59
2021/06/18 00:54:29;;;;;;;11.47;10.67;;;20.50;1.00;;;;;;4940606;29;20469;-58
2021/06/18 00:57:00;;;;;;;11.70;10.90;;;20.40;53.40;;;;;;4936536;29;20429;-59
2021/06/18 00:59:26;;;;;;;11.63;10.73;;;20.30;99.90;;;;;;4942274;29;20954;-58
2021/06/18 01:01:52;;;;;;;11.70;10.90;;;20.20;1.00;;;;;;4938704;29;20432;-58
2021/06/18 01:04:20;;;;;;;11.37;10.57;;;20.20;99.90;;;;;;4944728;29;20438;-58
2021/06/18 01:06:52;;;;;;;11.10;10.30;;;20.20;99.90;;;;;;4936083;29;20491;-58
2021/06/18 01:09:20;;;;;;;11.70;10.90;;;20.20;1.00;;;;;;4934377;29;20429;-58
2021/06/18 01:11:58;;;;;;;12.03;11.20;;;20.20;1.00;;;;;;4934790;29;20513;-58
2021/06/18 01:14:41;;;;;;;11.73;10.83;;;20.20;1.00;;;;;;4940027;28;20484;-58
2021/06/18 01:17:45;;;;;;;12.07;11.07;;;20.20;15.90;;;;;;4948778;28;20471;-59
2021/06/18 01:20:48;;;;;;;11.20;10.40;;;20.20;1.00;;;;;;4838632;29;20518;-58
2021/06/18 01:23:29;;;;;;;11.03;10.13;;;20.20;1.00;;;;;;4843949;29;20448;-55
2021/06/18 01:26:16;;;;;;;11.17;10.37;;;20.20;1.00;;;;;;4839427;29;20545;-58
2021/06/18 01:28:59;;;;;;;11.40;10.60;;;20.30;99.90;;;;;;4849149;29;20452;-58
2021/06/18 01:31:31;;;;;;;11.37;10.60;;;20.40;99.90;;;;;;4851466;29;20445;-58
2021/06/18 01:34:06;;;;;;;11.50;10.70;;;20.40;99.90;;;;;;4837722;29;21093;-56
2021/06/18 01:36:33;;;;;;;12.00;11.10;;;20.40;99.90;;;;;;4848605;29;20445;-58
2021/06/18 01:39:03;;;;;;;10.50;9.80;;;20.40;99.90;;;;;;4838568;29;20912;-57
2021/06/18 01:41:31;;;;;;;11.40;10.40;;;20.40;99.90;;;;;;4838685;29;20476;-58
2021/06/18 01:44:00;;;;;;;11.20;10.30;;;20.40;99.90;;;;;;4847228;29;20455;-58
2021/06/18 01:46:30;;;;;;;11.23;10.43;;;20.40;99.90;;;;;;4851737;29;20441;-58
2021/06/18 01:49:02;;;;;;;11.57;10.80;;;20.30;1.00;;;;;;4839566;29;20490;-57
2021/06/18 01:51:29;;;;;;;12.10;11.20;;;20.30;1.00;;;;;;4909521;29;21117;-59
2021/06/18 01:53:57;;;;;;;11.93;11.13;;;20.30;17.10;;;;;;4934022;28;20530;-59
2021/06/18 01:56:24;;;;;;;11.93;11.13;;;20.20;99.90;;;;;;4943914;29;20429;-59
2021/06/18 01:58:54;;;;;;;11.70;10.90;;;20.10;99.90;;;;;;4936384;29;20423;-58
2021/06/18 02:01:20;;;;;;;11.47;10.67;;;20.00;1.00;;;;;;4943217;29;21360;-58
2021/06/18 02:03:47;;;;;;;11.50;10.70;;;20.00;1.00;;;;;;4934587;29;20495;-59
2021/06/18 02:06:16;;;;;;;11.67;10.83;;;20.00;1.00;;;;;;4934728;29;20923;-59
2021/06/18 02:08:44;;;;;;;12.43;11.63;;;19.90;10.60;;;;;;4931920;29;20494;-58
2021/06/18 02:11:11;;;;;;;12.30;11.40;;;19.90;99.90;;;;;;4944044;29;20525;-59
2021/06/18 02:13:37;;;;;;;11.90;11.00;;;19.80;99.90;;;;;;4932367;29;20467;-59
2021/06/18 02:16:05;;;;;;;11.67;10.77;;;19.80;1.00;;;;;;4931506;29;20524;-58
2021/06/18 02:18:32;;;;;;;12.60;11.70;;;19.80;1.00;;;;;;4933908;29;20833;-58
2021/06/18 02:21:00;;;;;;;11.60;10.80;;;19.80;1.00;;;;;;4944723;28;21181;-59
2021/06/18 02:23:29;;;;;;;11.90;11.13;;;19.70;99.90;;;;;;4931929;29;20446;-58
2021/06/18 02:25:59;;;;;;;12.10;11.30;;;19.70;99.90;;;;;;4937207;29;20954;-58
2021/06/18 02:28:25;;;;;;;12.10;11.20;;;19.70;99.90;;;;;;4935763;28;20641;-58
2021/06/18 02:30:52;;;;;;;11.40;10.60;;;19.70;1.00;;;;;;4954420;28;20501;-58
2021/06/18 02:33:18;;;;;;;10.97;10.17;;;19.70;1.00;;;;;;4941094;28;21021;-57
2021/06/18 02:35:46;;;;;;;11.20;10.40;;;19.70;99.90;;;;;;4947341;28;20500;-58
2021/06/18 02:38:12;;;;;;;12.27;11.37;;;19.80;99.90;;;;;;4940183;28;20498;-58
2021/06/18 02:40:40;;;;;;;11.47;10.57;;;19.90;99.90;;;;;;4932170;29;21015;-58
2021/06/18 02:43:06;;;;;;;11.90;11.10;;;19.90;1.00;;;;;;4933940;28;20924;-58
2021/06/18 02:45:32;;;;;;;11.37;10.60;;;20.00;1.00;;;;;;4943992;29;20815;-58
2021/06/18 02:48:24;;;;;;;11.50;10.70;;;20.20;99.90;;;;;;4933864;28;20501;-58
2021/06/18 02:51:12;;;;;;;11.70;10.70;;;20.30;99.90;;;;;;4933288;29;20429;-58
2021/06/18 02:53:45;;;;;;;11.67;10.83;;;20.40;99.90;;;;;;4940966;29;20554;-59
2021/06/18 02:56:31;;;;;;;12.20;11.40;;;20.40;99.90;;;;;;4942565;29;20436;-59
2021/06/18 02:59:07;;;;;;;12.53;11.50;;;20.30;99.90;;;;;;4948453;29;20992;-57
2021/06/18 03:01:38;;;;;;;10.80;10.00;;;20.30;99.90;;;;;;4933357;29;20433;-57
2021/06/18 03:04:05;;;;;;;11.83;10.83;;;20.30;99.90;;;;;;4932041;29;20429;-57
2021/06/18 03:06:34;;;;;;;10.93;10.20;;;20.30;99.90;;;;;;4944381;29;20448;-58
2021/06/18 03:09:03;;;;;;;11.07;10.27;;;20.30;99.90;;;;;;4951481;29;20440;-58
2021/06/18 03:11:40;;;;;;;11.10;10.40;;;20.40;99.90;;;;;;4939546;29;20445;-59
2021/06/18 03:14:09;;;;;;;11.50;10.73;;;20.30;99.90;;;;;;4935795;29;20458;-59
2021/06/18 03:16:37;;;;;;;11.80;11.00;;;20.30;99.90;;;;;;4935278;29;20437;-58
2021/06/18 03:19:06;;;;;;;12.17;11.27;;;20.40;99.90;;;;;;4952405;29;20471;-58
2021/06/18 03:21:35;;;;;;;11.37;10.57;;;20.40;99.90;;;;;;4934734;29;20788;-56
2021/06/18 03:24:03;;;;;;;11.50;10.70;;;20.30;99.90;;;;;;4946245;29;20440;-59
2021/06/18 03:26:30;;;;;;;12.20;11.20;;;20.30;99.90;;;;;;4935660;29;20478;-59
2021/06/18 03:28:57;;;;;;;12.00;11.20;;;20.40;99.90;;;;;;4948584;29;20955;-59
2021/06/18 03:31:24;;;;;;;11.30;10.40;;;20.30;99.90;;;;;;4957418;28;20454;-60
2021/06/18 03:33:50;;;;;;;11.40;10.63;;;20.30;99.90;;;;;;4937486;29;20502;-59
2021/06/18 03:36:26;;;;;;;11.33;10.63;;;20.50;99.90;;;;;;4935997;29;20451;-59
2021/06/18 03:38:53;;;;;;;11.13;10.40;;;20.50;23.00;;;;;;4942886;29;20438;-60
2021/06/18 03:41:23;;;;;;;11.97;11.07;;;20.60;1.00;;;;;;4946820;29;20507;-59
2021/06/18 03:43:49;;;;;;;12.50;11.50;;;20.60;1.00;;;;;;4934984;29;20445;-59
2021/06/18 03:46:17;;;;;;;11.03;10.30;;;20.70;1.00;;;;;;4946414;29;20580;-59
2021/06/18 03:48:45;;;;;;;11.60;10.70;;;20.70;1.00;;;;;;4942346;29;20491;-58
2021/06/18 03:51:11;;;;;;;11.50;10.60;;;20.80;1.00;;;;;;4936624;29;20938;-59
2021/06/18 03:53:37;;;;;;;11.90;11.00;;;20.80;1.00;;;;;;4940138;29;20459;-58
2021/06/18 03:56:05;;;;;;;11.90;11.10;;;20.80;1.00;;;;;;4943270;29;20438;-59
2021/06/18 03:58:33;;;;;;;11.80;11.00;;;20.80;1.00;;;;;;4938159;29;20749;-59
2021/06/18 04:01:00;;;;;;;11.53;10.53;;;20.80;1.00;;;;;;4942089;29;20469;-59
2021/06/18 04:03:27;;;;;;;11.40;10.70;;;20.80;1.00;;;;;;4939394;28;20468;-59
2021/06/18 04:05:59;;;;;;;12.30;11.30;;;20.80;1.00;;;;;;4938187;28;21016;-59
2021/06/18 04:08:24;;;;;;;12.57;11.60;;;20.80;1.00;;;;;;4937299;29;20516;-59
2021/06/18 04:10:50;;;;;;;12.20;11.30;;;20.80;1.00;;;;;;4957504;28;20539;-60
2021/06/18 04:13:16;;;;;;;11.77;10.87;;;20.80;1.00;;;;;;4934224;29;20247;-60
2021/06/18 04:15:42;;;;;;;12.37;11.37;;;20.80;9.20;;;;;;4931655;29;20174;-60
2021/06/18 04:18:09;;;;;;;11.40;10.60;;;20.80;1.00;;;;;;4931622;29;20499;-60
2021/06/18 04:20:36;;;;;;;11.43;10.63;;;20.90;1.00;;;;;;4932530;28;20186;-59
2021/06/18 04:23:02;;;;;;;11.90;11.10;;;20.90;1.00;;;;;;4939927;29;20568;-59
2021/06/18 04:25:27;;;;;;;11.83;11.03;;;20.90;1.00;;;;;;4931497;29;20832;-59
2021/06/18 04:27:53;;;;;;;12.57;11.47;;;21.00;1.00;;;;;;4942315;29;20421;-59
2021/06/18 04:30:20;;;;;;;12.60;11.63;;;21.00;1.00;;;;;;4931467;28;20185;-59
2021/06/18 04:32:47;;;;;;;10.77;10.00;;;21.10;1.00;;;;;;4935075;29;20596;-60
2021/06/18 04:35:13;;;;;;;11.23;10.53;;;21.10;1.00;;;;;;4940557;29;20569;-60
2021/06/18 04:37:40;;;;;;;12.57;11.70;;;21.20;1.00;;;;;;4929530;28;20425;-60
2021/06/18 04:40:08;;;;;;;11.10;10.40;;;21.30;1.00;;;;;;4928383;29;20173;-60
2021/06/18 04:42:34;;;;;;;11.10;10.30;;;21.40;1.00;;;;;;4927691;28;20520;-59
2021/06/18 04:44:59;;;;;;;11.93;11.10;;;21.40;99.90;;;;;;4927661;28;20495;-58
2021/06/18 04:47:26;;;;;;;11.67;10.87;;;21.50;99.90;;;;;;4936605;29;20442;-59
2021/06/18 04:49:52;;;;;;;11.63;10.73;;;21.60;99.90;;;;;;4943675;28;20270;-60
2021/06/18 04:52:17;;;;;;;11.30;10.50;;;21.70;99.90;;;;;;4942773;28;20533;-59
2021/06/18 04:54:45;;;;;;;10.93;10.10;;;21.70;99.90;;;;;;4941736;29;20530;-58
2021/06/18 04:57:10;;;;;;;10.83;10.07;;;21.80;99.90;;;;;;4933340;29;20185;-58
2021/06/18 04:59:37;;;;;;;10.53;9.83;;;21.90;99.90;;;;;;4936324;28;20436;-58
2021/06/18 05:02:03;;;;;;;10.63;9.93;;;22.00;99.90;;;;;;4936291;28;20798;-58
2021/06/18 05:04:29;;;;;;;10.70;9.90;;;22.10;50.80;;;;;;4937958;29;20412;-58
2021/06/18 05:06:55;;;;;;;10.33;9.63;;;22.10;30.60;;;;;;4944685;29;20437;-59
2021/06/18 05:09:20;;;;;;;10.60;9.97;;;22.20;6.30;;;;;;4936294;29;20325;-59
2021/06/18 05:11:46;;;;;;;10.70;10.00;;;22.30;1.00;;;;;;4936683;28;20555;-59
2021/06/18 05:14:11;;;;;;;11.03;10.23;;;22.40;1.00;;;;;;4932267;29;20209;-59
2021/06/18 05:16:39;;;;;;;10.87;10.17;;;22.40;1.00;;;;;;4945234;29;20677;-59
2021/06/18 05:19:08;;;;;;;11.67;10.77;;;22.40;1.00;;;;;;4933920;29;20356;-58
2021/06/18 05:21:34;;;;;;;11.00;10.30;;;22.50;1.00;;;;;;4933765;28;20488;-57
2021/06/18 05:23:59;;;;;;;11.43;10.57;;;22.60;1.00;;;;;;4932413;29;20768;-59
2021/06/18 05:26:28;;;;;;;11.30;10.60;;;22.70;1.00;;;;;;4929412;29;20185;-57
2021/06/18 05:28:54;;;;;;;10.57;9.97;;;22.80;1.00;;;;;;4954600;28;20424;-57
2021/06/18 05:31:19;;;;;;;10.07;9.47;;;22.80;1.00;;;;;;4945746;28;20580;-58
2021/06/18 05:33:45;;;;;;;11.27;10.27;;;22.80;1.00;;;;;;4936291;28;20566;-57
2021/06/18 05:36:10;;;;;;;11.37;10.47;;;22.90;1.00;;;;;;4939179;28;20185;-58
2021/06/18 05:38:36;;;;;;;10.83;10.10;;;23.00;1.00;;;;;;4961644;28;20319;-57
2021/06/18 05:41:01;;;;;;;10.73;10.03;;;23.00;1.00;;;;;;4946751;28;20281;-58
2021/06/18 05:43:27;;;;;;;11.67;10.60;;;23.10;1.00;;;;;;4945743;28;20195;-58
2021/06/18 05:45:53;;;;;;;11.73;10.83;;;23.20;1.00;;;;;;4935350;28;20174;-58
2021/06/18 05:48:18;;;;;;;10.27;9.40;;;23.20;1.00;;;;;;4934824;28;20193;-57
2021/06/18 05:50:44;;;;;;;11.47;10.57;;;23.30;1.00;;;;;;4935666;28;20202;-59
2021/06/18 05:53:09;;;;;;;10.60;9.90;;;23.40;1.00;;;;;;4934529;29;20193;-57
2021/06/18 05:55:35;;;;;;;10.53;9.90;;;23.40;1.00;;;;;;4934132;29;20239;-59
2021/06/18 05:58:00;;;;;;;10.63;9.83;;;23.50;1.00;;;;;;4945493;28;20180;-58
2021/06/18 06:00:26;;;;;;;10.97;10.17;;;23.50;1.00;;;;;;4946215;28;20189;-58
2021/06/18 06:02:52;;;;;;;10.70;10.00;;;23.60;1.00;;;;;;4949159;28;20177;-56
2021/06/18 06:05:17;;;;;;;11.20;10.50;;;23.60;1.00;;;;;;4936242;29;20190;-58
2021/06/18 06:07:47;;;;;;;11.33;10.43;;;23.70;1.00;;;;;;4935986;29;20547;-58
2021/06/18 06:10:14;;;;;;;10.40;9.63;;;23.70;1.00;;;;;;4918127;29;20190;-58
2021/06/18 06:12:41;;;;;;;10.03;9.43;;;23.80;1.00;;;;;;4943517;29;20771;-58
2021/06/18 06:15:07;;;;;;;11.63;10.73;;;23.90;1.00;;;;;;4939526;29;20955;-57
2021/06/18 06:17:32;;;;;;;11.50;10.60;;;23.90;1.00;;;;;;4939322;29;20562;-58
2021/06/18 06:19:58;;;;;;;10.80;10.17;;;24.10;1.00;;;;;;4938413;29;20898;-57
2021/06/18 06:22:24;;;;;;;10.90;10.10;;;24.20;1.00;;;;;;4941163;29;20256;-58
2021/06/18 06:24:49;;;;;;;10.57;9.77;;;24.30;1.00;;;;;;4939844;29;20189;-59
2021/06/18 06:27:15;;;;;;;10.90;10.20;;;24.30;1.00;;;;;;4940051;29;20260;-57
2021/06/18 06:29:41;;;;;;;10.50;9.87;;;24.40;1.00;;;;;;4936880;29;20268;-58
2021/06/18 06:32:06;;;;;;;11.20;10.40;;;24.50;1.00;;;;;;4935891;29;20200;-59
2021/06/18 06:34:32;;;;;;;11.50;10.70;;;24.50;1.00;;;;;;4942284;29;20267;-58
2021/06/18 06:36:58;;;;;;;10.60;9.90;;;24.60;1.00;;;;;;4931035;29;20412;-58
2021/06/18 06:39:24;;;;;;;11.47;10.67;;;24.60;1.00;;;;;;4909920;29;20174;-59
2021/06/18 06:41:50;;;;;;;11.17;10.27;;;24.70;1.00;;;;;;4931972;29;20424;-57
2021/06/18 06:44:15;;;;;;;10.23;9.57;;;24.90;1.00;;;;;;4930415;29;20617;-59
2021/06/18 06:46:41;;;;;;;10.83;9.90;;;24.90;1.00;;;;;;4931272;29;20636;-58
2021/06/18 06:49:10;;;;;;;10.57;9.87;;;25.00;1.00;;;;;;4942235;28;20192;-59
2021/06/18 06:51:36;;;;;;;9.50;8.90;;;25.10;1.00;;;;;;4933742;29;20200;-56
2021/06/18 06:54:03;;;;;;;10.87;10.20;;;25.20;1.00;;;;;;4929767;29;20469;-58
2021/06/18 06:56:29;;;;;;;10.07;9.40;;;25.30;99.90;;;;;;4931383;29;20632;-58
2021/06/18 06:58:55;;;;;;;10.57;9.67;;;25.40;99.90;;;;;;4936601;29;20488;-57
2021/06/18 07:01:20;;;;;;;9.80;9.20;;;25.40;99.90;;;;;;4930805;29;20209;-59
2021/06/18 07:03:46;;;;;;;9.87;9.17;;;25.50;99.90;;;;;;4931017;29;20972;-59
2021/06/18 07:06:12;;;;;;;9.80;9.00;;;25.60;99.90;;;;;;4937488;29;20260;-58
2021/06/18 07:08:37;;;;;;;10.03;9.37;;;25.70;99.90;;;;;;4931374;29;20261;-58
2021/06/18 07:11:03;;;;;;;10.70;10.00;;;25.80;99.90;;;;;;4943403;29;20512;-53
2021/06/18 07:13:29;;;;;;;10.30;9.70;;;25.90;99.90;;;;;;4949870;29;20197;-57
2021/06/18 07:15:56;;;;;;;9.97;9.30;;;25.90;99.90;;;;;;4950079;29;20181;-58
2021/06/18 07:18:22;;;;;;;10.30;9.60;;;26.10;99.90;;;;;;4949563;29;20460;-59
2021/06/18 07:20:51;;;;;;;10.30;9.70;;;26.20;99.90;;;;;;4934859;28;20429;-59
2021/06/18 07:23:16;;;;;;;11.47;10.67;;;26.30;99.90;;;;;;4929421;29;20422;-58
2021/06/18 07:25:43;;;;;;;9.80;9.20;;;26.30;99.90;;;;;;4929458;29;20422;-59
2021/06/18 07:28:12;;;;;;;10.53;9.63;;;26.40;99.90;;;;;;4932989;28;20698;-59
2021/06/18 07:30:49;;;;;;;10.50;9.90;;;26.50;99.90;;;;;;4934066;28;20427;-59
2021/06/18 07:33:15;;;;;;;10.10;9.47;;;26.50;99.90;;;;;;4919274;29;20421;-58
2021/06/18 07:35:41;;;;;;;10.10;9.50;;;26.70;99.90;;;;;;4934974;28;20478;-58
2021/06/18 07:38:06;;;;;;;11.13;10.00;;;26.80;99.90;;;;;;4935381;28;20181;-58
2021/06/18 07:40:32;;;;;;;10.50;9.50;;;26.90;99.90;;;;;;4930584;28;20437;-58
2021/06/18 07:43:01;;;;;;;9.37;8.57;;;27.10;99.90;;;;;;4931713;28;20178;-58
2021/06/18 07:45:28;;;;;;;9.50;8.70;;;27.20;99.90;;;;;;4920299;29;20441;-59
2021/06/18 07:47:53;;;;;;;8.57;8.07;;;27.30;99.90;;;;;;4930107;29;20468;-59
2021/06/18 07:50:20;;;;;;;8.77;8.07;;;27.50;99.90;;;;;;4929411;29;20226;-59
2021/06/18 07:52:46;;;;;;;8.10;7.57;;;27.50;99.90;;;;;;4931967;29;20261;-60
2021/06/18 07:55:17;;;;;;;8.60;8.00;;;27.60;99.90;;;;;;4932401;29;20552;-59
2021/06/18 07:57:43;;;;;;;8.67;7.97;;;27.80;99.90;;;;;;4936657;28;20433;-59
2021/06/18 08:00:11;;;;;;;8.40;7.80;;;28.00;99.90;;;;;;4938710;28;20443;-59
2021/06/18 08:02:43;;;;;;;8.30;7.80;;;28.10;99.90;;;;;;4934922;28;20419;-59
2021/06/18 08:05:11;;;;;;;8.63;7.90;;;28.10;99.90;;;;;;4934898;29;20484;-58
2021/06/18 08:07:40;;;;;;;7.73;7.23;;;28.20;99.90;;;;;;4934263;29;20855;-59
2021/06/18 08:10:08;;;;;;;7.93;7.43;;;28.30;99.90;;;;;;4938473;29;20429;-59
2021/06/18 08:12:34;;;;;;;8.83;8.13;;;28.30;99.90;;;;;;4939390;29;20409;-59
2021/06/18 08:15:00;;;;;;;8.63;8.03;;;28.50;99.90;;;;;;4936863;29;20553;-58
2021/06/18 08:17:29;;;;;;;8.37;7.87;;;28.60;99.90;;;;;;4919428;29;21360;-58
2021/06/18 08:19:54;;;;;;;9.00;8.40;;;28.70;99.90;;;;;;4944445;29;20177;-58
2021/06/18 08:22:20;;;;;;;9.27;8.70;;;28.70;99.90;;;;;;4933814;29;20421;-59
2021/06/18 08:24:45;;;;;;;9.07;8.43;;;28.70;99.90;;;;;;4936984;29;20244;-58
2021/06/18 08:27:11;;;;;;;8.53;7.83;;;28.80;99.90;;;;;;4939807;29;20246;-59
2021/06/18 08:29:39;;;;;;;8.77;8.20;;;28.90;99.90;;;;;;4926036;29;20594;-58
2021/06/18 08:32:11;;;;;;;8.80;8.20;;;28.90;99.90;;;;;;4945892;28;20292;-59
2021/06/18 08:34:37;;;;;;;8.80;8.30;;;29.00;99.90;;;;;;4932462;29;20466;-59
2021/06/18 08:37:03;;;;;;;9.50;8.70;;;29.00;99.90;;;;;;4942327;29;20421;-59
2021/06/18 08:39:29;;;;;;;8.13;7.73;;;29.20;99.90;;;;;;4936366;29;20188;-59
2021/06/18 08:41:55;;;;;;;8.53;8.03;;;29.30;99.90;;;;;;4937977;29;20414;-59
2021/06/18 08:44:20;;;;;;;9.10;8.40;;;29.50;99.90;;;;;;4931005;29;20285;-58
2021/06/18 08:46:49;;;;;;;8.97;8.37;;;29.60;99.90;;;;;;4931125;29;20181;-59
2021/06/18 08:49:15;;;;;;;8.87;8.27;;;29.60;99.90;;;;;;4932257;29;20193;-57
2021/06/18 08:51:41;;;;;;;8.80;8.30;;;29.70;99.90;;;;;;4936177;28;20948;-58
2021/06/18 08:54:12;;;;;;;8.00;7.50;;;29.80;99.90;;;;;;4932761;29;21059;-60
2021/06/18 08:56:38;;;;;;;8.77;8.27;;;30.00;99.90;;;;;;4930649;29;20178;-59
2021/06/18 08:59:04;;;;;;;8.80;8.30;;;30.20;99.90;;;;;;4933308;29;20410;-59
2021/06/18 09:01:30;;;;;;;8.20;7.70;;;30.30;99.90;;;;;;4935262;28;20430;-59
2021/06/18 09:04:06;;;;;;;8.87;8.13;;;30.40;99.90;;;;;;4942528;28;20189;-59
2021/06/18 09:06:43;;;;;;;9.07;8.37;;;30.50;99.90;;;;;;4934328;28;20512;-59
2021/06/18 09:09:16;;;;;;;7.93;7.43;;;30.70;99.90;;;;;;4935846;29;20421;-59
2021/06/18 09:12:02;;;;;;;7.67;7.27;;;31.00;99.90;;;;;;4932198;29;21523;-59
2021/06/18 09:14:30;;;;;;;7.53;7.03;;;31.10;99.90;;;;;;4931975;29;20462;-59
2021/06/18 09:17:02;;;;;;;8.07;7.57;;;31.30;99.90;;;;;;4932944;29;20446;-58
2021/06/18 09:19:28;;;;;;;9.13;8.53;;;31.50;99.90;;;;;;4935141;29;20458;-59
2021/06/18 09:22:18;;;;;;;8.23;7.60;;;31.60;99.90;;;;;;4931162;29;20405;-59
2021/06/18 09:24:47;;;;;;;8.00;7.50;;;31.80;99.90;;;;;;4937151;29;20252;-59
2021/06/18 09:27:13;;;;;;;7.80;7.30;;;32.20;99.90;;;;;;4939197;29;20438;-59
2021/06/18 09:29:40;;;;;;;7.63;7.13;;;32.50;99.90;;;;;;4938939;28;20426;-59
2021/06/18 09:32:12;;;;;;;8.17;7.67;;;32.80;99.90;;;;;;4939703;29;20491;-59
2021/06/18 09:35:02;;;;;;;7.83;7.23;;;33.10;99.90;;;;;;4943159;29;20472;-59
2021/06/18 09:37:36;;;;;;;8.27;7.77;;;33.30;99.90;;;;;;4919301;29;20429;-60
2021/06/18 09:40:19;;;;;;;7.53;7.13;;;33.50;99.90;;;;;;4941408;29;20483;-60
2021/06/18 09:42:45;;;;;;;7.23;6.83;;;33.90;99.90;;;;;;4934766;29;20412;-59
2021/06/18 09:45:35;;;;;;;7.63;7.23;;;34.30;99.90;;;;;;4935243;29;20787;-59
2021/06/18 09:48:16;;;;;;;8.23;7.63;;;34.40;99.90;;;;;;4933403;29;20202;-59
2021/06/18 09:50:57;;;;;;;8.27;7.87;;;34.80;99.90;;;;;;4931926;29;21099;-60
2021/06/18 09:53:25;;;;;;;8.10;7.63;;;35.30;99.90;;;;;;4933355;29;20469;-59
2021/06/18 09:56:05;;;;;;;8.63;8.23;;;35.70;99.90;;;;;;4935520;29;20477;-57
2021/06/18 09:58:33;;;;;;;7.80;7.30;;;36.10;99.90;;;;;;4937321;28;20523;-60
2021/06/18 10:01:25;;;;;;;7.50;7.10;;;35.80;99.90;;;;;;4931887;28;20512;-60
2021/06/18 10:04:02;;;;;;;8.10;7.50;;;35.30;99.90;;;;;;4932434;29;20512;-60
2021/06/18 10:06:36;;;;;;;8.40;7.80;;;34.70;99.90;;;;;;4931550;29;20825;-59
2021/06/18 10:09:04;;;;;;;8.90;8.40;;;34.00;99.90;;;;;;4948118;28;20439;-59
2021/06/18 10:11:31;;;;;;;9.73;8.67;;;33.60;99.90;;;;;;4946830;28;21252;-60
2021/06/18 10:13:59;;;;;;;8.33;7.93;;;33.50;99.90;;;;;;4944789;29;20470;-60
2021/06/18 10:16:26;;;;;;;8.40;7.97;;;33.40;99.90;;;;;;4938925;29;20457;-59
2021/06/18 10:18:59;;;;;;;8.67;8.07;;;33.20;99.90;;;;;;4950296;28;20515;-59
2021/06/18 10:21:26;;;;;;;8.43;7.93;;;33.10;99.90;;;;;;4944751;29;20432;-59
2021/06/18 10:23:58;;;;;;;8.70;8.10;;;32.90;99.90;;;;;;4933271;29;20441;-60
2021/06/18 10:26:26;;;;;;;7.83;7.37;;;32.90;99.90;;;;;;4930850;29;20421;-60
2021/06/18 10:28:57;;;;;;;9.13;8.57;;;32.80;99.90;;;;;;4931543;29;20506;-59
2021/06/18 10:31:28;;;;;;;8.97;8.37;;;32.60;99.90;;;;;;4931223;29;20935;-59
2021/06/18 10:34:08;;;;;;;8.60;8.10;;;32.70;99.90;;;;;;4929235;29;20493;-59
2021/06/18 10:36:35;;;;;;;9.07;8.37;;;32.70;99.90;;;;;;4929951;29;20430;-59
2021/06/18 10:39:14;;;;;;;8.00;7.60;;;32.70;99.90;;;;;;4928921;29;20476;-60
2021/06/18 10:41:54;;;;;;;8.60;8.10;;;32.70;99.90;;;;;;4925520;29;20429;-59
2021/06/18 10:44:41;;;;;;;8.13;7.63;;;32.80;99.90;;;;;;4945707;28;20795;-59
2021/06/18 10:47:23;;;;;;;9.10;8.60;;;33.00;99.90;;;;;;4930051;29;20433;-59
2021/06/18 10:49:53;;;;;;;9.73;9.17;;;33.10;99.90;;;;;;4937142;28;20414;-59
2021/06/18 10:52:21;;;;;;;8.93;8.40;;;33.00;99.90;;;;;;4938526;28;20435;-59
2021/06/18 10:54:55;;;;;;;8.30;7.77;;;33.00;99.90;;;;;;4935442;29;20460;-59
2021/06/18 10:57:22;;;;;;;8.63;8.17;;;33.20;99.90;;;;;;4934250;29;20920;-59
2021/06/18 10:59:55;;;;;;;9.07;8.47;;;32.90;99.90;;;;;;4936731;29;20422;-59
2021/06/18 11:02:21;;;;;;;8.97;8.37;;;33.10;99.90;;;;;;4931603;29;20430;-60
2021/06/18 11:04:51;;;;;;;9.70;9.10;;;33.30;99.90;;;;;;4931130;29;20509;-60
2021/06/18 11:07:18;;;;;;;9.87;9.30;;;33.50;99.90;;;;;;4935366;29;20571;-59
2021/06/18 11:09:45;;;;;;;9.93;9.33;;;33.50;99.90;;;;;;4942969;29;21121;-57
2021/06/18 11:12:23;;;;;;;8.77;8.17;;;33.40;99.90;;;;;;4947179;29;20416;-59
2021/06/18 11:14:53;;;;;;;10.03;9.30;;;33.20;99.90;;;;;;4948202;29;20468;-59
2021/06/18 11:17:40;;;;;;;9.83;9.20;;;33.20;99.90;;;;;;4942759;29;20480;-59
2021/06/18 11:20:14;;;;;;;9.80;9.10;;;33.10;99.90;;;;;;4947130;29;20425;-59
2021/06/18 11:22:53;;;;;;;9.77;9.07;;;33.20;99.90;;;;;;4945193;29;20409;-59
2021/06/18 11:25:40;;;;;;;8.60;8.10;;;33.20;99.90;;;;;;4943977;29;20444;-59
2021/06/18 11:28:21;;;;;;;9.30;8.80;;;33.10;99.90;;;;;;4943333;29;20419;-58
2021/06/18 11:30:52;;;;;;;8.90;8.33;;;33.20;99.90;;;;;;4947766;29;20415;-59
2021/06/18 11:33:54;;;;;;;10.77;10.00;;;33.40;99.90;;;;;;4955054;29;20757;-59
2021/06/18 11:36:24;;;;;;;10.03;9.43;;;33.50;99.90;;;;;;4911030;29;20472;-58
2021/06/18 11:42:11;;;;;;;10.17;9.13;;;33.80;99.90;;;;;;4947351;29;20399;-55
2021/06/18 11:44:38;;;;;;;9.50;8.87;;;33.70;99.90;;;;;;4952580;29;20531;-58
2021/06/18 11:47:04;;;;;;;9.80;9.10;;;33.80;99.90;;;;;;4954183;28;20260;-59
2021/06/18 11:49:33;;;;;;;9.57;8.97;;;33.90;99.90;;;;;;4954673;29;20428;-59
2021/06/18 11:52:04;;;;;;;10.30;9.70;;;34.00;99.90;;;;;;4953273;29;20834;-60
2021/06/18 11:54:35;;;;;;;10.17;9.57;;;34.30;99.90;;;;;;4936639;28;20468;-60
2021/06/18 11:57:02;;;;;;;10.13;9.43;;;34.50;99.90;;;;;;4937535;29;20477;-58
2021/06/18 11:59:28;;;;;;;10.93;9.83;;;34.60;99.90;;;;;;4936124;29;20480;-59
2021/06/18 12:01:53;;;;;;;10.07;9.43;;;34.60;99.90;;;;;;4940356;29;20452;-59
2021/06/18 12:04:19;;;;;;;9.57;8.87;;;34.40;99.90;;;;;;4935872;29;20192;-58
2021/06/18 12:06:44;;;;;;;9.20;8.70;;;34.40;99.90;;;;;;4935578;29;20189;-58
2021/06/18 12:09:16;;;;;;;9.40;8.80;;;34.60;99.90;;;;;;4954931;29;20618;-57
2021/06/18 12:12:02;;;;;;;9.27;8.77;;;34.90;99.90;;;;;;4955048;29;20192;-59
2021/06/18 12:14:43;;;;;;;9.33;8.73;;;35.20;99.90;;;;;;4950247;29;20468;-59
2021/06/18 12:17:09;;;;;;;9.73;9.00;;;35.10;99.90;;;;;;4949969;29;20464;-58
2021/06/18 12:19:43;;;;;;;9.50;8.90;;;35.20;99.90;;;;;;4940034;29;20470;-59
2021/06/18 12:22:21;;;;;;;9.70;9.20;;;35.20;99.90;;;;;;4935017;29;20426;-58
2021/06/18 12:24:52;;;;;;;9.90;9.30;;;35.40;99.90;;;;;;4940541;28;20516;-59
2021/06/18 12:27:23;;;;;;;9.50;8.97;;;35.50;99.90;;;;;;4942738;28;20433;-59
2021/06/18 12:29:55;;;;;;;9.57;8.87;;;35.30;99.90;;;;;;4934094;28;20432;-59
2021/06/18 12:32:28;;;;;;;9.43;8.83;;;35.40;99.90;;;;;;4934216;29;20979;-59
2021/06/18 12:34:57;;;;;;;9.77;9.17;;;35.70;99.90;;;;;;4938410;29;20472;-59
2021/06/18 12:37:31;;;;;;;8.70;8.17;;;35.90;99.90;;;;;;4948576;28;20459;-59
2021/06/18 12:40:05;;;;;;;9.30;8.60;;;36.40;99.90;;;;;;4933019;29;20426;-59
2021/06/18 12:42:47;;;;;;;9.70;9.00;;;36.50;99.90;;;;;;4949589;28;21333;-56
2021/06/18 12:45:13;;;;;;;9.90;9.30;;;36.40;99.90;;;;;;4942023;29;20433;-59
2021/06/18 12:47:41;;;;;;;9.00;8.47;;;36.40;99.90;;;;;;4934298;29;20198;-59
2021/06/18 12:50:33;;;;;;;9.57;8.53;;;36.60;99.90;;;;;;4933893;29;20578;-59
2021/06/18 12:53:07;;;;;;;10.13;9.50;;;37.00;99.90;;;;;;4934199;29;20892;-58